Bucks Bar, California
Current Conditions -  °F | °C
As of 8:15 PM on Thursday 27 Nov 2014 (Local Time) from KPVF Reporting Station
Clear Clear  
Wind Chill: 61°   Ceiling: Unl
Heat Index: 61°   Visibility: 10mi
Dew Point: 36°   Wind: 5mph
Humidity: 39%   Direction: 130°SE
Pressure: 30.13"   Gusts: NA
Location:  38.7308°N, 120.774°W
Report Text: KPVF 280415Z AUTO 13004KT 10SM CLR 16/02 A3013 RMK AO1
Loading
Personal Weather Stations






























Interactive Weather Map New forecast layout! Learn more

10-Day Weather Forecast

Advertisements
Track Severe Weather on mobile